Flight Track Log - Related Links

Times and Time Zones

All times are in EDT time to prevent confusion due to time zone crossing. See the ASA458 flight status page for this flight to view local times or setup timezone preferences in your user account.

Time Position Orientation Groundspeed Altitude Reporting Facility
EDT Latitude Longitude Course Direction KTS MPH feet Rate Location/Type
Thu 07:15:13 PM 47.4661 -122.3097 360° North 175 201 1,500  Level Seattle Center
Thu 07:15:55 PM 47.5083 -122.3094 360° North 201 231 3,100 2,330 Climbing Seattle Center
Thu 07:16:56 PM 47.5728 -122.3361 344° North 267 307 5,500 2,607 Climbing Seattle Center
Thu 07:17:57 PM 47.6297 -122.4033 322° Northwest 285 328 8,400 2,364 Climbing Seattle Center
Thu 07:19:08 PM 47.5844 -122.4956 234° Southwest 305 351 10,700 2,318 Climbing Seattle Center
Thu 07:20:09 PM 47.4894 -122.4467 161° South 345 397 13,500 2,656 Climbing Seattle Center
Thu 07:21:10 PM 47.3989 -122.3967 160° South 354 407 16,100 2,262 Climbing Seattle Center
Thu 07:22:11 PM 47.3172 -122.3536 160° South 353 406 18,100 2,115 Climbing Seattle Center
Thu 07:23:12 PM 47.2028 -122.2953 161° South 367 422 20,400 2,361 Climbing Seattle Center
Thu 07:24:13 PM 47.1036 -122.2408 160° South 383 441 22,900 2,164 Climbing Seattle Center
Thu 07:25:14 PM 47.0072 -122.1919 161° South 372 428 24,800 1,512 Climbing Seattle Center
Thu 07:26:16 PM 46.9058 -122.1556 166° South 379 436 26,000 1,317 Climbing Seattle Center
Thu 07:27:17 PM 46.8000 -122.1500 178° South 381 438 27,500 1,328 Climbing Seattle Center
Thu 07:28:18 PM 46.6911 -122.1450 178° South 392 451 28,700 1,230 Climbing Seattle Center
Thu 07:29:19 PM 46.5811 -122.1361 177° South 399 459 30,000 1,082 Climbing Seattle Center
Thu 07:30:20 PM 46.4722 -122.1322 179° South 397 457 30,900 443 Climbing Seattle Center
Thu 07:31:21 PM 46.3408 -122.1214 177° South 398 458 30,900  Level Seattle Center
Thu 07:32:22 PM 46.2306 -122.0914 169° South 405 466 30,900  Level Seattle Center
Thu 07:33:23 PM 46.1283 -122.0697 172° South 408 470 30,900  Level Seattle Center
Thu 07:34:24 PM 46.0167 -122.0411 170° South 407 468 30,900  Level Seattle Center
Thu 07:35:25 PM 45.9044 -122.0144 171° South 409 471 30,900  Level Seattle Center
Thu 07:36:26 PM 45.7936 -121.9889 171° South 405 466 30,900  Level Seattle Center
Thu 07:37:27 PM 45.6811 -121.9600 170° South 409 471 30,900  Level Seattle Center
Thu 07:38:28 PM 45.5453 -121.9292 171° South 408 470 30,900  Level Seattle Center
Thu 07:39:29 PM 45.4339 -121.9039 171° South 409 471 30,900  Level Seattle Center
Thu 07:40:30 PM 45.3236 -121.8769 170° South 407 468 30,900  Level Seattle Center
Thu 07:41:31 PM 45.2144 -121.8511 171° South 405 466 30,900  Level Seattle Center
Thu 07:42:32 PM 45.1056 -121.8261 171° South 400 460 30,900  Level Seattle Center
Thu 07:43:33 PM 44.9933 -121.7997 171° South 406 467 30,900  Level Seattle Center
Thu 07:44:34 PM 44.8822 -121.7744 171° South 408 470 30,900  Level Seattle Center
Thu 07:45:35 PM 44.7694 -121.7497 171° South 410 472 30,900  Level Seattle Center
Thu 07:46:36 PM 44.6581 -121.7242 171° South 409 471 30,900  Level Seattle Center
Thu 07:47:37 PM 44.5464 -121.7000 171° South 408 470 30,900  Level Seattle Center
Thu 07:48:38 PM 44.4108 -121.6692 171° South 411 473 30,900  Level Seattle Center
Thu 07:49:39 PM 44.2989 -121.6431 171° South 410 472 30,900  Level Seattle Center
Thu 07:50:40 PM 44.1867 -121.6178 171° South 410 472 30,900  Level Seattle Center
Thu 07:51:41 PM 44.0722 -121.5919 171° South 412 474 30,900  Level Seattle Center
Thu 07:52:42 PM 43.9614 -121.5639 170° South 412 474 30,900  Level Seattle Center
Thu 07:53:43 PM 43.8483 -121.5392 171° South 412 474 30,900  Level Seattle Center
Thu 07:54:44 PM 43.7242 -121.5117 171° South 416 479 30,900  Level Seattle Center
Thu 07:55:45 PM 43.6108 -121.4858 171° South 413 475 30,900  Level Seattle Center
Thu 07:56:46 PM 43.4981 -121.4603 171° South 412 474 30,900  Level Seattle Center
Thu 07:57:48 PM 43.3853 -121.4339 170° South 412 474 30,900  Level Seattle Center
Thu 07:58:51 PM 43.2714 -121.4086 171° South 414 476 30,900  Level Seattle Center
Thu 07:59:52 PM 43.1578 -121.3842 171° South 413 475 30,900  Level Seattle Center
Thu 08:00:53 PM 43.0439 -121.3586 171° South 414 476 30,900  Level Seattle Center
Thu 08:01:54 PM 42.9300 -121.3331 171° South 414 476 30,900  Level Seattle Center
Thu 08:02:55 PM 42.7939 -121.3031 171° South 413 475 30,900  Level Seattle Center
Thu 08:03:56 PM 42.6794 -121.2764 171° South 415 478 30,900  Level Seattle Center
Thu 08:04:57 PM 42.5644 -121.2528 171° South 415 478 30,900  Level Seattle Center
Thu 08:05:58 PM 42.4494 -121.2272 171° South 416 479 30,900  Level Seattle Center
Thu 08:07:00 PM 42.3350 -121.2033 171° South 414 476 30,900  Level Seattle Center
Thu 08:08:01 PM 42.2211 -121.1772 170° South 414 476 30,900  Level Seattle Center
Thu 08:09:02 PM 42.1075 -121.1539 171° South 409 471 30,900  Level Seattle Center
Thu 08:10:03 PM 41.9928 -121.1303 171° South 414 476 30,900  Level Seattle Center
Thu 08:11:04 PM 41.8783 -121.1056 171° South 415 478 30,900  Level Seattle Center
Thu 08:12:05 PM 41.7644 -121.0806 171° South 412 474 30,900  Level Seattle Center
Thu 08:13:06 PM 41.6514 -121.0575 171° South 409 471 30,900  Level Seattle Center
Thu 08:14:08 PM 41.5369 -121.0314 170° South 413 475 30,900  Level Seattle Center
Thu 08:15:09 PM 41.4244 -121.0081 171° South 410 472 30,900  Level Seattle Center
Thu 08:16:10 PM 41.2881 -120.9786 171° South 412 474 30,900  Level Seattle Center
Thu 08:17:11 PM 41.1744 -120.9539 171° South 413 475 30,900  Level Seattle Center
Thu 08:18:12 PM 41.0603 -120.9314 172° South 415 478 30,900  Level Seattle Center
Thu 08:19:14 PM 40.9467 -120.9133 173° South 411 473 30,900  Level Seattle Center
Thu 08:20:15 PM 40.8322 -120.9039 176° South 411 473 30,900  Level Seattle Center
Thu 08:21:16 PM 40.7175 -120.8961 177° South 413 475 30,900  Level Seattle Center
Thu 08:22:17 PM 40.6058 -120.8864 176° South 415 478 30,900  Level Seattle Center
Thu 08:23:18 PM 40.4908 -120.8781 177° South 414 476 30,900  Level Seattle Center
Thu 08:24:19 PM 40.3775 -120.8681 176° South 409 471 30,900  Level Seattle Center
Thu 08:25:20 PM 40.2381 -120.8556 176° South 414 476 30,900  Level Seattle Center
Thu 08:26:22 PM 40.1228 -120.8467 177° South 415 478 30,900  Level Seattle Center
Thu 08:27:47 PM 39.9606 -120.8331 176° South 416 479 30,900  Level Oakland Center
Thu 08:28:49 PM 39.8458 -120.8244 177° South 414 476 30,900  Level Oakland Center
Thu 08:29:50 PM 39.7306 -120.8164 177° South 415 478 30,900  Level Oakland Center
Thu 08:30:51 PM 39.6156 -120.8061 176° South 412 474 30,900  Level Oakland Center
Thu 08:31:53 PM 39.5017 -120.7986 177° South 411 473 30,900  Level Oakland Center
Thu 08:32:54 PM 39.3872 -120.7892 176° South 411 473 30,900  Level Oakland Center
Thu 08:33:55 PM 39.2739 -120.7817 177° South 409 471 30,900  Level Oakland Center
Thu 08:34:57 PM 39.1597 -120.7714 176° South 410 472 30,900  Level Oakland Center
Thu 08:35:58 PM 39.0228 -120.7617 177° South 408 470 30,900  Level Oakland Center
Thu 08:37:00 PM 38.9089 -120.7533 177° South 408 470 30,900  Level Oakland Center
Thu 08:38:01 PM 38.7936 -120.7450 177° South 410 472 30,900  Level Oakland Center
Thu 08:39:02 PM 38.6783 -120.7358 176° South 410 472 30,900  Level Oakland Center
Thu 08:40:04 PM 38.5625 -120.7278 177° South 412 474 30,900  Level Oakland Center
Thu 08:41:05 PM 38.4469 -120.7197 177° South 412 474 30,900  Level Oakland Center
Thu 08:42:07 PM 38.3322 -120.7111 177° South 411 473 30,900  Level Oakland Center
Thu 08:43:08 PM 38.2169 -120.7022 177° South 411 473 30,900  Level Oakland Center
Thu 08:44:09 PM 38.1028 -120.6939 177° South 411 473 30,900  Level Oakland Center
Thu 08:45:11 PM 37.9881 -120.6847 176° South 411 473 30,900  Level Oakland Center
Thu 08:46:12 PM 37.8742 -120.6761 177° South 410 472 30,900  Level Oakland Center
Thu 08:47:14 PM 37.7600 -120.6675 177° South 412 474 30,900  Level Oakland Center
Thu 08:48:15 PM 37.6225 -120.6572 177° South 412 474 30,900  Level Oakland Center
Thu 08:49:17 PM 37.5072 -120.6494 177° South 413 475 30,900  Level Oakland Center
Thu 08:50:18 PM 37.3925 -120.6422 177° South 413 475 30,900  Level Oakland Center
Thu 08:51:20 PM 37.2789 -120.6183 171° South 415 478 30,900  Level Oakland Center
Thu 08:52:21 PM 37.1681 -120.5717 161° South 419 482 30,900  Level Oakland Center
Thu 08:53:22 PM 37.0575 -120.5286 163° South 417 480 30,900  Level Oakland Center
Thu 08:54:24 PM 36.9464 -120.4831 162° South 419 482 30,900  Level Oakland Center
Thu 08:55:25 PM 36.8383 -120.4281 158° South 421 484 30,900  Level Oakland Center
Thu 08:56:27 PM 36.7300 -120.3753 159° South 420 483 30,900  Level Oakland Center
Thu 08:57:28 PM 36.6000 -120.3106 158° South 419 482 30,900  Level Oakland Center
Thu 08:58:30 PM 36.4914 -120.2550 158° South 420 483 30,900  Level Oakland Center
Thu 08:59:31 PM 36.3833 -120.2006 158° South 419 482 30,900  Level Oakland Center
Thu 09:00:32 PM 36.2756 -120.1461 158° South 418 481 30,900  Level Oakland Center
Thu 09:01:34 PM 36.1664 -120.0917 158° South 419 482 30,900  Level Oakland Center
Thu 09:02:35 PM 36.0583 -120.0364 158° South 419 482 30,900  Level Oakland Center
Thu 09:03:37 PM 35.9486 -119.9822 158° South 422 486 30,900  Level Oakland Center
Thu 09:04:38 PM 35.8383 -119.9281 158° South 423 487 30,900  Level Oakland Center
Thu 09:05:40 PM 35.7292 -119.8733 158° South 421 484 30,900  Level Oakland Center
Thu 09:06:41 PM 35.6186 -119.8183 158° South 424 488 30,900  Level Oakland Center
Thu 09:07:46 PM 35.4867 -119.7539 158° South 425 489 30,900  Level Los Angeles Center
Thu 09:08:48 PM 35.3761 -119.7006 159° South 423 487 30,900  Level Los Angeles Center
Thu 09:09:50 PM 35.2661 -119.6456 158° South 424 488 30,900  Level Los Angeles Center
Thu 09:10:52 PM 35.1667 -119.5653 147° Southeast 427 491 30,900  Level Los Angeles Center
Thu 09:11:54 PM 35.0683 -119.4794 144° Southeast 431 496 30,900  Level Los Angeles Center
Thu 09:12:55 PM 34.9706 -119.3967 145° Southeast 430 495 30,900 -1,220 Level Los Angeles Center
Thu 09:13:57 PM 34.8533 -119.2975 145° Southeast 428 493 28,400 -2,323 Descending Los Angeles Center
Thu 09:14:59 PM 34.7589 -119.2183 145° Southeast 415 478 26,100 -2,177 Descending Los Angeles Center
Thu 09:16:01 PM 34.6683 -119.1411 145° Southeast 400 460 23,900 -2,032 Descending Los Angeles Center
Thu 09:17:03 PM 34.5836 -119.0717 146° Southeast 394 453 21,900 -2,177 Descending Los Angeles Center
Thu 09:18:05 PM 34.4814 -118.9853 145° Southeast 372 428 19,400 -2,226 Descending Los Angeles Center
Thu 09:19:07 PM 34.3975 -118.9167 146° Southeast 363 418 17,300 -2,049 Descending Los Angeles Center
Thu 09:20:08 PM 34.3119 -118.8644 153° Southeast 348 400 15,200 -2,146 Descending Los Angeles Center
Thu 09:21:10 PM 34.2197 -118.8308 163° South 345 397 12,900 -1,839 Descending Los Angeles Center
Thu 09:22:12 PM 34.1300 -118.7983 163° South 337 388 11,400 -1,258 Descending Los Angeles Center
Thu 09:23:14 PM 34.0444 -118.7514 156° South 302 348 10,300 -726 Descending Los Angeles Center
Thu 09:24:16 PM 34.0289 -118.6542 101° East 298 343 9,900 -871 Descending Los Angeles Center
Thu 09:25:18 PM 34.0189 -118.5489 97° East 292 336 8,500 -1,171 Descending Los Angeles Center
Thu 09:26:19 PM 34.0108 -118.4583 96° East 273 314 7,500 -1,220 Descending Los Angeles Center
Thu 09:27:21 PM 34.0194 -118.3700 83° East 271 312 6,000 -1,258 Descending Los Angeles Center
Thu 09:28:23 PM 34.0264 -118.2794 85° East 272 313 4,900 -968 Descending Los Angeles Center
Thu 09:29:25 PM 33.9919 -118.2336 132° Southeast 235 270 4,000 -1,258 Descending Los Angeles Center
Thu 09:30:27 PM 33.9642 -118.2856 237° Southwest 200 230 2,300 -1,366 Descending Los Angeles Center
Thu 09:31:28 PM 33.9575 -118.3461 262° West 192 221 1,200 -952 Descending Los Angeles Center
Thu 09:32:33 PM 33.9525 -118.3986 263° West 150 173 300 -831 Descending Los Angeles Center
Thu 09:34:00 PM 33.9333 -118.4000 228° Southwest  Level FlightAware Approximate
Thu 09:41:00 PM 33.9425 -118.4081 228° Southwest  Level Estimated

Login

Don't have an account? Register now (free) for customized features, flight alerts, and more!